Time;durP1;ratioP1;P1;durP2;ratioP2;P2;SDS_P1;SDS_P2;PMS_P1;PMS_P2;Temp;Humidity;BMP_temperature;BMP_pressure;BME280_temperature;BME280_humidity;BME280_pressure;Samples;Min_cycle;Max_cycle;Signal;HPM_P1;HPM_P2
2024/01/30 00:01:43;;;;;;;13.55;5.32;;;6.60;99.90;;;;;;5024565;28;20397;-76
2024/01/30 00:04:08;;;;;;;11.65;6.28;;;6.60;99.90;;;;;;5025244;28;20497;-74
2024/01/30 00:06:34;;;;;;;12.70;6.10;;;6.60;99.90;;;;;;5027763;28;20052;-75
2024/01/30 00:09:00;;;;;;;10.52;6.55;;;6.60;99.90;;;;;;5011501;28;20422;-74
2024/01/30 00:11:26;;;;;;;10.48;5.50;;;6.60;99.90;;;;;;5052522;28;20051;-75
2024/01/30 00:13:52;;;;;;;13.00;6.78;;;6.60;99.90;;;;;;5023864;28;20831;-75
2024/01/30 00:16:23;;;;;;;13.50;5.65;;;6.60;99.90;;;;;;5021416;28;20057;-75
2024/01/30 00:18:53;;;;;;;12.52;7.20;;;6.60;99.90;;;;;;5002634;28;20049;-76
2024/01/30 00:21:19;;;;;;;14.55;6.72;;;6.60;99.90;;;;;;5026112;28;20045;-75
2024/01/30 00:23:45;;;;;;;12.07;6.90;;;6.60;99.90;;;;;;5021648;28;20240;-75
2024/01/30 00:26:11;;;;;;;12.23;6.22;;;6.60;99.90;;;;;;5028093;28;20499;-74
2024/01/30 00:28:38;;;;;;;12.65;6.05;;;6.60;99.90;;;;;;5001712;28;20504;-76
2024/01/30 00:31:04;;;;;;;12.82;6.47;;;6.50;99.90;;;;;;5027454;28;20076;-75
2024/01/30 00:33:30;;;;;;;14.98;5.63;;;6.50;99.90;;;;;;5015558;28;20072;-75
2024/01/30 00:35:56;;;;;;;7.72;5.07;;;6.50;99.90;;;;;;5020777;28;20044;-75
2024/01/30 00:38:22;;;;;;;10.38;5.65;;;6.50;99.90;;;;;;5007924;28;20072;-74
2024/01/30 00:40:48;;;;;;;8.23;5.13;;;6.50;99.90;;;;;;5028040;28;20041;-75
2024/01/30 00:43:15;;;;;;;11.63;5.85;;;6.50;99.90;;;;;;5008910;28;20045;-75
2024/01/30 00:45:41;;;;;;;10.55;5.30;;;6.50;99.90;;;;;;5026157;28;20049;-75
2024/01/30 00:48:07;;;;;;;9.43;6.75;;;6.50;99.90;;;;;;5027888;28;20048;-75
2024/01/30 00:50:33;;;;;;;10.30;5.22;;;6.40;99.90;;;;;;5026059;28;20041;-75
2024/01/30 00:52:58;;;;;;;10.73;5.68;;;6.50;99.90;;;;;;5023239;28;20128;-76
2024/01/30 00:55:24;;;;;;;10.65;6.03;;;6.50;99.90;;;;;;5024377;28;20699;-75
2024/01/30 00:57:50;;;;;;;9.77;4.97;;;6.40;99.90;;;;;;5007643;28;20083;-76
2024/01/30 01:00:17;;;;;;;16.55;6.97;;;6.30;99.90;;;;;;5022746;28;20041;-76
2024/01/30 01:02:43;;;;;;;11.50;6.85;;;6.30;99.90;;;;;;5009526;28;20079;-75
2024/01/30 01:05:09;;;;;;;10.25;5.57;;;6.30;99.90;;;;;;5002907;28;20042;-75
2024/01/30 01:07:35;;;;;;;10.40;5.20;;;6.30;99.90;;;;;;5019668;28;20043;-75
2024/01/30 01:10:01;;;;;;;13.85;5.53;;;6.30;99.90;;;;;;5015895;28;20148;-75
2024/01/30 01:12:26;;;;;;;11.52;6.85;;;6.30;99.90;;;;;;5024802;28;20132;-74
2024/01/30 01:14:52;;;;;;;9.73;6.22;;;6.40;99.90;;;;;;5007928;28;20052;-75
2024/01/30 01:17:18;;;;;;;10.02;5.97;;;6.30;99.90;;;;;;5024870;28;20198;-74
2024/01/30 01:19:44;;;;;;;10.55;6.32;;;6.30;99.90;;;;;;5022373;28;20076;-75
2024/01/30 01:22:10;;;;;;;10.05;6.20;;;6.30;99.90;;;;;;5021040;28;20128;-75
2024/01/30 01:24:36;;;;;;;10.82;6.60;;;6.40;99.90;;;;;;5012102;28;20040;-75
2024/01/30 01:27:02;;;;;;;12.32;5.30;;;6.40;99.90;;;;;;5016276;28;20038;-75
2024/01/30 01:29:29;;;;;;;11.63;6.30;;;6.30;99.90;;;;;;5022092;28;20044;-75
2024/01/30 01:31:58;;;;;;;9.95;5.10;;;6.30;99.90;;;;;;5022025;28;20049;-74
2024/01/30 01:34:24;;;;;;;14.20;6.55;;;6.30;99.90;;;;;;5021935;28;20111;-73
2024/01/30 01:36:50;;;;;;;12.23;6.05;;;6.30;99.90;;;;;;5023977;28;20672;-74
2024/01/30 01:39:17;;;;;;;9.60;6.25;;;6.30;99.90;;;;;;5023359;28;20045;-75
2024/01/30 01:41:42;;;;;;;10.93;5.40;;;6.30;99.90;;;;;;5021229;28;20411;-76
2024/01/30 01:44:09;;;;;;;9.18;5.50;;;6.30;99.90;;;;;;5018916;28;20037;-75
2024/01/30 01:46:35;;;;;;;9.57;6.03;;;6.30;99.90;;;;;;5022433;28;20033;-75
2024/01/30 01:49:04;;;;;;;10.30;5.78;;;6.30;99.90;;;;;;5006474;28;20120;-74
2024/01/30 01:51:33;;;;;;;10.47;6.10;;;6.30;99.90;;;;;;5007858;28;20532;-75
2024/01/30 01:54:01;;;;;;;8.70;5.45;;;6.30;99.90;;;;;;5017691;28;20066;-75
2024/01/30 01:56:29;;;;;;;11.32;5.68;;;6.30;99.90;;;;;;5016313;28;20049;-75
2024/01/30 01:58:58;;;;;;;11.85;6.20;;;6.30;99.90;;;;;;5024318;28;20045;-75
2024/01/30 02:01:25;;;;;;;7.17;4.57;;;6.30;99.90;;;;;;5029454;28;20496;-75
2024/01/30 02:03:51;;;;;;;14.05;6.50;;;6.30;99.90;;;;;;5006387;28;20037;-74
2024/01/30 02:06:17;;;;;;;9.43;5.20;;;6.30;99.90;;;;;;5000101;28;20041;-74
2024/01/30 02:08:43;;;;;;;11.95;6.30;;;6.30;99.90;;;;;;5025367;28;20446;-76
2024/01/30 02:11:12;;;;;;;10.60;5.50;;;6.20;99.90;;;;;;5023048;28;20092;-75
2024/01/30 02:13:38;;;;;;;12.02;5.70;;;6.20;99.90;;;;;;5023145;28;20045;-75
2024/01/30 02:16:04;;;;;;;11.00;5.03;;;6.20;99.90;;;;;;5008404;28;20044;-75
2024/01/30 02:18:30;;;;;;;16.55;6.32;;;6.20;99.90;;;;;;5019462;28;20049;-75
2024/01/30 02:20:58;;;;;;;14.38;6.55;;;6.20;99.90;;;;;;5021259;28;20048;-75
2024/01/30 02:23:25;;;;;;;11.13;6.25;;;6.20;99.90;;;;;;5017827;28;20370;-74
2024/01/30 02:25:52;;;;;;;11.00;5.93;;;6.30;99.90;;;;;;5017848;28;20037;-74
2024/01/30 02:28:19;;;;;;;11.23;5.40;;;6.20;99.90;;;;;;5012390;28;20057;-75
2024/01/30 02:30:46;;;;;;;6.22;4.45;;;6.30;99.90;;;;;;5023700;28;20131;-75
2024/01/30 02:33:13;;;;;;;10.73;5.53;;;6.30;99.90;;;;;;5025112;28;20481;-74
2024/01/30 02:35:38;;;;;;;10.65;6.28;;;6.30;99.90;;;;;;5025381;28;20037;-75
2024/01/30 02:38:05;;;;;;;10.38;7.05;;;6.30;99.90;;;;;;5008187;28;20045;-75
2024/01/30 02:40:31;;;;;;;11.80;5.93;;;6.30;99.90;;;;;;5022628;28;20037;-76
2024/01/30 02:42:59;;;;;;;8.98;5.70;;;6.30;99.90;;;;;;5008978;28;20113;-74
2024/01/30 02:45:24;;;;;;;10.13;5.65;;;6.30;99.90;;;;;;5021029;28;20037;-74
2024/01/30 02:47:50;;;;;;;10.90;5.50;;;6.30;99.90;;;;;;5003778;28;20121;-73
2024/01/30 02:50:16;;;;;;;15.02;6.90;;;6.30;99.90;;;;;;5026485;28;20076;-73
2024/01/30 02:52:45;;;;;;;10.88;5.60;;;6.30;99.90;;;;;;5008983;28;20079;-75
2024/01/30 02:55:11;;;;;;;8.15;4.53;;;6.30;99.90;;;;;;5029768;28;20045;-74
2024/01/30 02:57:38;;;;;;;14.93;6.30;;;6.40;99.90;;;;;;5028713;28;20090;-73
2024/01/30 03:00:05;;;;;;;8.63;4.85;;;6.40;99.90;;;;;;5029574;28;20041;-74
2024/01/30 03:02:32;;;;;;;9.30;5.15;;;6.50;99.90;;;;;;5027350;28;20044;-74
2024/01/30 03:04:59;;;;;;;9.40;5.03;;;6.50;99.90;;;;;;5026820;28;20037;-73
2024/01/30 03:07:25;;;;;;;5.03;3.53;;;6.60;99.90;;;;;;5009000;28;20259;-73
2024/01/30 03:09:51;;;;;;;10.93;5.90;;;6.60;99.90;;;;;;5025493;28;20045;-72
2024/01/30 03:12:17;;;;;;;9.45;5.68;;;6.60;99.90;;;;;;5029345;28;20068;-74
2024/01/30 03:14:43;;;;;;;10.85;5.60;;;6.60;99.90;;;;;;5025645;28;20038;-75
2024/01/30 03:17:08;;;;;;;11.32;5.43;;;6.60;99.90;;;;;;5022767;28;20045;-73
2024/01/30 03:19:34;;;;;;;12.25;5.82;;;6.60;99.90;;;;;;5021007;28;20057;-74
2024/01/30 03:22:00;;;;;;;9.50;4.72;;;6.60;99.90;;;;;;5027263;28;20520;-74
2024/01/30 03:24:26;;;;;;;11.05;6.10;;;6.70;99.90;;;;;;5033152;28;20110;-74
2024/01/30 03:26:52;;;;;;;9.23;5.70;;;6.60;99.90;;;;;;5003599;28;20046;-74
2024/01/30 03:29:18;;;;;;;10.50;5.57;;;6.60;99.90;;;;;;5024765;28;20047;-73
2024/01/30 03:31:44;;;;;;;10.32;6.40;;;6.70;99.90;;;;;;5024480;28;20037;-73
2024/01/30 03:34:10;;;;;;;4.18;3.47;;;6.70;99.90;;;;;;5024816;28;20060;-73
2024/01/30 03:36:36;;;;;;;6.40;4.82;;;6.80;99.90;;;;;;5017496;28;20548;-75
2024/01/30 03:39:02;;;;;;;9.10;4.85;;;6.80;99.90;;;;;;5027343;28;20119;-76
2024/01/30 03:41:27;;;;;;;11.93;5.57;;;6.90;99.90;;;;;;5021935;28;20515;-76
2024/01/30 03:43:53;;;;;;;11.10;4.13;;;6.90;99.90;;;;;;5013447;28;20037;-72
2024/01/30 03:46:19;;;;;;;9.80;4.80;;;6.90;99.90;;;;;;5016176;28;20045;-74
2024/01/30 03:48:48;;;;;;;9.38;5.18;;;7.00;99.90;;;;;;5025143;28;20083;-74
2024/01/30 03:51:15;;;;;;;7.28;5.15;;;6.90;99.90;;;;;;5023493;28;20037;-75
2024/01/30 03:53:42;;;;;;;7.32;4.07;;;7.00;99.90;;;;;;5024888;28;20080;-74
2024/01/30 03:56:08;;;;;;;10.27;4.65;;;7.00;99.90;;;;;;5000091;28;20095;-75
2024/01/30 03:58:35;;;;;;;5.68;3.42;;;7.00;99.90;;;;;;5029081;28;20095;-76
2024/01/30 04:01:01;;;;;;;7.30;4.30;;;7.00;99.90;;;;;;5025101;28;20132;-75
2024/01/30 04:03:26;;;;;;;7.03;4.85;;;7.00;99.90;;;;;;5002932;28;20528;-73
2024/01/30 04:05:53;;;;;;;7.22;4.68;;;6.90;99.90;;;;;;5028297;28;20060;-75
2024/01/30 04:08:19;;;;;;;9.77;4.85;;;7.00;99.90;;;;;;5020113;28;20069;-74
2024/01/30 04:10:45;;;;;;;11.27;4.88;;;7.00;99.90;;;;;;5011867;28;20065;-77
2024/01/30 04:13:10;;;;;;;7.90;4.40;;;7.00;99.90;;;;;;5024280;28;20056;-77
2024/01/30 04:15:36;;;;;;;8.15;4.30;;;7.00;99.90;;;;;;5026501;28;20504;-77
2024/01/30 04:18:02;;;;;;;10.60;4.10;;;7.00;99.90;;;;;;5023292;28;20041;-76
2024/01/30 04:20:29;;;;;;;6.28;2.88;;;7.00;99.90;;;;;;5022890;28;20053;-76
2024/01/30 04:22:55;;;;;;;6.63;4.10;;;7.00;99.90;;;;;;5026667;28;20079;-76
2024/01/30 04:25:21;;;;;;;7.70;4.75;;;7.00;99.90;;;;;;5006786;28;20429;-73
2024/01/30 04:27:46;;;;;;;6.30;4.57;;;7.00;99.90;;;;;;5018056;28;20045;-75
2024/01/30 04:30:12;;;;;;;7.32;3.88;;;7.00;99.90;;;;;;5019739;28;20390;-73
2024/01/30 04:32:38;;;;;;;9.27;5.82;;;7.00;99.90;;;;;;5027960;28;20049;-73
2024/01/30 04:35:04;;;;;;;8.77;5.22;;;7.10;99.90;;;;;;5015856;28;20099;-74
2024/01/30 04:37:30;;;;;;;10.23;4.55;;;7.10;99.90;;;;;;5021850;28;20370;-74
2024/01/30 04:39:56;;;;;;;6.93;4.20;;;7.10;99.90;;;;;;5031279;28;20102;-75
2024/01/30 04:42:22;;;;;;;9.70;4.63;;;7.10;99.90;;;;;;5009408;28;20048;-75
2024/01/30 04:44:48;;;;;;;6.53;4.03;;;7.10;99.90;;;;;;5006426;28;20041;-73
2024/01/30 04:47:13;;;;;;;7.53;4.10;;;7.20;99.90;;;;;;5026962;28;20091;-74
2024/01/30 04:49:39;;;;;;;7.60;4.20;;;7.20;99.90;;;;;;5027268;28;20052;-76
2024/01/30 04:52:09;;;;;;;5.10;3.50;;;7.20;99.90;;;;;;5023677;28;20183;-75
2024/01/30 04:54:35;;;;;;;7.97;4.40;;;7.20;99.90;;;;;;5018563;28;20033;-76
2024/01/30 04:57:01;;;;;;;8.50;5.55;;;7.20;99.90;;;;;;5015586;28;20037;-73
2024/01/30 04:59:27;;;;;;;8.93;5.28;;;7.20;99.90;;;;;;4999186;28;20511;-76
2024/01/30 05:01:53;;;;;;;8.48;5.22;;;7.20;99.90;;;;;;5027716;28;20179;-76
2024/01/30 05:04:19;;;;;;;8.07;4.45;;;7.20;99.90;;;;;;5008395;28;20095;-74
2024/01/30 05:06:46;;;;;;;9.40;5.57;;;7.20;99.90;;;;;;5022570;28;20104;-75
2024/01/30 05:09:12;;;;;;;8.25;4.80;;;7.20;99.90;;;;;;5020376;28;20053;-74
2024/01/30 05:11:41;;;;;;;8.18;4.63;;;7.20;99.90;;;;;;5005992;28;20043;-73
2024/01/30 05:14:08;;;;;;;9.38;5.22;;;7.10;99.90;;;;;;5018789;28;20084;-73
2024/01/30 05:16:34;;;;;;;9.25;4.20;;;7.10;99.90;;;;;;5028965;28;20560;-75
2024/01/30 05:19:01;;;;;;;6.93;4.07;;;7.10;99.90;;;;;;5000786;28;20049;-76
2024/01/30 05:21:26;;;;;;;8.85;4.40;;;7.10;99.90;;;;;;5016953;28;20046;-75
2024/01/30 05:23:52;;;;;;;4.72;3.22;;;7.20;99.90;;;;;;5019387;28;20096;-73
2024/01/30 05:26:18;;;;;;;6.30;3.17;;;7.20;99.90;;;;;;5016177;28;20044;-75
2024/01/30 05:28:44;;;;;;;8.15;3.80;;;7.10;99.90;;;;;;5014342;28;20037;-76
2024/01/30 05:31:10;;;;;;;11.43;4.18;;;7.10;99.90;;;;;;5016010;28;20049;-74
2024/01/30 05:33:43;;;;;;;6.85;3.88;;;7.10;99.90;;;;;;5088947;27;20447;-75
2024/01/30 05:36:11;;;;;;;13.27;5.68;;;7.10;99.90;;;;;;5087982;28;20037;-76
2024/01/30 05:38:37;;;;;;;7.65;4.93;;;7.00;99.90;;;;;;5087143;28;20044;-76
2024/01/30 05:41:03;;;;;;;7.57;4.25;;;7.00;99.90;;;;;;5091031;28;20036;-74
2024/01/30 05:43:28;;;;;;;6.03;3.90;;;7.00;99.90;;;;;;5093626;28;20745;-75
2024/01/30 05:45:54;;;;;;;12.25;5.25;;;7.00;99.90;;;;;;5087485;28;20040;-76
2024/01/30 05:48:20;;;;;;;10.98;4.55;;;7.00;99.90;;;;;;5087649;28;20044;-75
2024/01/30 05:50:46;;;;;;;8.50;3.50;;;7.00;99.90;;;;;;5085013;28;20043;-76
2024/01/30 05:53:12;;;;;;;8.13;3.63;;;7.00;99.90;;;;;;5086390;28;20116;-76
2024/01/30 05:55:38;;;;;;;10.18;3.17;;;7.00;99.90;;;;;;5087370;28;20157;-76
2024/01/30 05:58:04;;;;;;;6.88;4.32;;;7.10;99.90;;;;;;5066859;28;20040;-75
2024/01/30 06:00:30;;;;;;;9.52;4.88;;;7.10;99.90;;;;;;5066447;28;20493;-73
2024/01/30 06:02:55;;;;;;;5.18;2.70;;;7.10;99.90;;;;;;5087178;28;20126;-75
2024/01/30 06:05:21;;;;;;;7.13;3.85;;;7.10;99.90;;;;;;5084913;28;20123;-74
2024/01/30 06:07:47;;;;;;;8.23;4.18;;;7.20;99.90;;;;;;5070325;28;20100;-75
2024/01/30 06:10:13;;;;;;;7.20;3.70;;;7.20;99.90;;;;;;5083251;28;20094;-73
2024/01/30 06:12:39;;;;;;;6.50;4.40;;;7.20;99.90;;;;;;5066307;28;20525;-72
2024/01/30 06:15:06;;;;;;;6.47;3.92;;;7.30;99.90;;;;;;5085724;28;20086;-75
2024/01/30 06:17:32;;;;;;;7.43;3.75;;;7.30;99.90;;;;;;5066970;28;20079;-75
2024/01/30 06:19:58;;;;;;;5.32;3.92;;;7.30;99.90;;;;;;5064337;28;20040;-76
2024/01/30 06:22:24;;;;;;;8.27;4.47;;;7.30;99.90;;;;;;5083137;28;20472;-76
2024/01/30 06:24:50;;;;;;;8.18;4.75;;;7.40;99.90;;;;;;5067261;28;20040;-75
2024/01/30 06:27:17;;;;;;;7.28;3.67;;;7.40;99.90;;;;;;5101627;28;20545;-76
2024/01/30 06:29:43;;;;;;;6.90;4.35;;;7.40;99.90;;;;;;5085745;28;20105;-72
2024/01/30 06:32:09;;;;;;;5.97;3.33;;;7.40;99.90;;;;;;5069495;28;20048;-74
2024/01/30 06:34:36;;;;;;;8.00;4.60;;;7.40;99.90;;;;;;5086049;28;20052;-76
2024/01/30 06:37:01;;;;;;;5.32;3.25;;;7.40;99.90;;;;;;5086167;28;20043;-74
2024/01/30 06:39:27;;;;;;;6.47;4.30;;;7.50;99.90;;;;;;5085954;28;20028;-74
2024/01/30 06:41:53;;;;;;;5.68;3.72;;;7.50;99.90;;;;;;5069348;28;20071;-73
2024/01/30 06:44:19;;;;;;;8.30;3.90;;;7.50;99.90;;;;;;5076400;28;20048;-73
2024/01/30 06:46:44;;;;;;;8.50;3.90;;;7.50;99.90;;;;;;5072707;28;20044;-75
2024/01/30 06:49:10;;;;;;;8.70;4.65;;;7.50;99.90;;;;;;5055869;28;20039;-74
2024/01/30 06:51:36;;;;;;;6.15;4.13;;;7.50;99.90;;;;;;5072364;28;20079;-75
2024/01/30 06:54:02;;;;;;;9.07;4.88;;;7.50;99.90;;;;;;5072360;28;20500;-76
2024/01/30 06:56:28;;;;;;;8.40;3.70;;;7.50;99.90;;;;;;5052929;28;20106;-77
2024/01/30 06:58:54;;;;;;;7.68;4.03;;;7.50;99.90;;;;;;5068764;28;20505;-76
2024/01/30 07:01:20;;;;;;;5.85;4.57;;;7.50;99.90;;;;;;5071862;28;20113;-75
2024/01/30 07:03:46;;;;;;;5.50;4.00;;;7.60;99.90;;;;;;5068002;28;20059;-76
2024/01/30 07:06:12;;;;;;;8.88;4.70;;;7.60;99.90;;;;;;5067971;28;20045;-77
2024/01/30 07:08:40;;;;;;;5.78;3.50;;;7.60;99.90;;;;;;5055477;28;20063;-75
2024/01/30 07:11:06;;;;;;;11.13;4.28;;;7.60;99.90;;;;;;5072398;28;20037;-76
2024/01/30 07:13:32;;;;;;;7.60;4.05;;;7.70;99.90;;;;;;5072383;28;20131;-76
2024/01/30 07:15:58;;;;;;;5.40;3.38;;;7.70;99.90;;;;;;5069855;28;20024;-76
2024/01/30 07:18:24;;;;;;;8.05;2.92;;;7.70;99.90;;;;;;5072191;28;20465;-76
2024/01/30 07:20:50;;;;;;;7.82;4.18;;;7.80;99.90;;;;;;5072072;28;20052;-75
2024/01/30 07:23:17;;;;;;;7.75;4.50;;;7.80;99.90;;;;;;5071658;28;20036;-78
2024/01/30 07:25:44;;;;;;;9.38;5.72;;;7.80;99.90;;;;;;5071841;28;20045;-77
2024/01/30 07:28:11;;;;;;;5.10;2.92;;;7.80;99.90;;;;;;5072241;28;20032;-71
2024/01/30 07:30:37;;;;;;;5.38;3.33;;;7.80;99.90;;;;;;5072205;28;20086;-76
2024/01/30 07:33:03;;;;;;;8.52;4.63;;;7.80;99.90;;;;;;5071079;28;20520;-77
2024/01/30 07:35:29;;;;;;;6.63;3.53;;;7.80;99.90;;;;;;5071854;28;20060;-78
2024/01/30 07:37:55;;;;;;;10.27;4.75;;;7.90;99.90;;;;;;5068530;28;20039;-76
2024/01/30 07:40:20;;;;;;;5.75;3.03;;;7.90;99.90;;;;;;5050335;28;20546;-77
2024/01/30 07:42:48;;;;;;;8.60;4.78;;;7.90;99.90;;;;;;5071477;28;20094;-76
2024/01/30 07:45:14;;;;;;;8.70;3.70;;;7.90;99.90;;;;;;5071972;28;20036;-77
2024/01/30 07:47:40;;;;;;;3.95;2.33;;;8.00;99.90;;;;;;5054876;28;20510;-77
2024/01/30 07:50:06;;;;;;;9.00;4.43;;;8.00;99.90;;;;;;5067486;28;20040;-75
2024/01/30 07:52:32;;;;;;;5.65;3.45;;;7.90;99.90;;;;;;5071708;28;20052;-75
2024/01/30 07:54:58;;;;;;;9.27;3.72;;;8.00;99.90;;;;;;5050563;28;20131;-78
2024/01/30 07:57:24;;;;;;;8.95;4.03;;;8.00;99.90;;;;;;5070925;28;20042;-74
2024/01/30 07:59:50;;;;;;;9.38;4.13;;;8.00;99.90;;;;;;5071528;28;20087;-76
2024/01/30 08:02:16;;;;;;;12.13;4.63;;;8.00;99.90;;;;;;5071383;28;20068;-78
2024/01/30 08:04:42;;;;;;;6.35;3.60;;;7.90;99.90;;;;;;5071374;28;20044;-76
2024/01/30 08:07:07;;;;;;;11.65;3.75;;;8.00;99.90;;;;;;5070828;28;20033;-77
2024/01/30 08:09:33;;;;;;;3.88;2.58;;;8.00;99.90;;;;;;5071343;28;20083;-78
2024/01/30 08:11:59;;;;;;;7.13;3.38;;;8.00;99.90;;;;;;5071901;28;20098;-78
2024/01/30 08:14:25;;;;;;;8.50;3.22;;;8.00;99.90;;;;;;5071382;28;20506;-77
2024/01/30 08:16:51;;;;;;;6.63;3.85;;;8.00;99.90;;;;;;5071388;28;20050;-71
2024/01/30 08:19:17;;;;;;;7.65;4.03;;;8.00;99.90;;;;;;5065423;28;20052;-79
2024/01/30 08:21:43;;;;;;;10.93;3.95;;;8.10;99.90;;;;;;5069902;28;20048;-78
2024/01/30 08:24:09;;;;;;;8.68;4.55;;;8.10;99.90;;;;;;5068773;28;20491;-79
2024/01/30 08:26:35;;;;;;;9.10;4.53;;;8.10;99.90;;;;;;5069731;28;20040;-78
2024/01/30 08:29:01;;;;;;;6.15;3.20;;;8.10;99.90;;;;;;5069514;28;20527;-78
2024/01/30 08:31:27;;;;;;;11.35;5.03;;;8.10;99.90;;;;;;5071001;28;20032;-79
2024/01/30 08:33:53;;;;;;;9.25;5.15;;;8.20;99.90;;;;;;5067238;28;20041;-79
2024/01/30 08:36:19;;;;;;;8.05;4.20;;;8.20;99.90;;;;;;5066417;28;20436;-78
2024/01/30 08:38:45;;;;;;;6.88;4.63;;;8.20;99.90;;;;;;5071324;28;20044;-79
2024/01/30 08:41:11;;;;;;;8.82;4.18;;;8.20;99.90;;;;;;5070559;28;20522;-78
2024/01/30 08:43:37;;;;;;;8.20;3.78;;;8.20;99.90;;;;;;5067089;28;20093;-80
2024/01/30 08:46:03;;;;;;;6.63;4.47;;;8.30;99.90;;;;;;5070970;28;20053;-79
2024/01/30 08:48:29;;;;;;;10.55;4.15;;;8.30;99.90;;;;;;5070672;28;20048;-79
2024/01/30 08:50:55;;;;;;;10.23;4.38;;;8.30;99.90;;;;;;5070588;28;20086;-80
2024/01/30 08:53:21;;;;;;;7.40;3.35;;;8.40;99.90;;;;;;5064195;28;20040;-80
2024/01/30 08:55:47;;;;;;;11.52;4.78;;;8.40;99.90;;;;;;5068753;28;20397;-80
2024/01/30 08:58:12;;;;;;;11.75;5.55;;;8.50;99.90;;;;;;5067120;28;20496;-80
2024/01/30 09:00:38;;;;;;;9.65;4.47;;;8.50;99.90;;;;;;5054388;28;20536;-78
2024/01/30 09:03:04;;;;;;;9.05;4.38;;;8.60;99.90;;;;;;5052651;28;20036;-78
2024/01/30 09:05:30;;;;;;;13.70;5.60;;;8.70;99.90;;;;;;5066563;28;20186;-78
2024/01/30 09:07:56;;;;;;;8.90;4.78;;;8.70;99.90;;;;;;5071031;28;20115;-78
2024/01/30 09:10:22;;;;;;;13.77;6.55;;;8.80;99.90;;;;;;5054419;28;20043;-79
2024/01/30 09:12:48;;;;;;;11.57;5.05;;;8.90;99.90;;;;;;5066317;28;20052;-79
2024/01/30 09:15:14;;;;;;;16.13;6.13;;;8.90;99.90;;;;;;5066656;28;20041;-79
2024/01/30 09:17:39;;;;;;;11.38;6.00;;;8.90;99.90;;;;;;5070485;28;20044;-79
2024/01/30 09:20:06;;;;;;;8.15;4.25;;;9.00;99.90;;;;;;5062192;28;20033;-79
2024/01/30 09:22:32;;;;;;;12.82;5.65;;;9.00;99.90;;;;;;5048153;28;20519;-79
2024/01/30 09:24:58;;;;;;;10.10;5.18;;;9.10;99.90;;;;;;5057099;28;20048;-80
2024/01/30 09:27:24;;;;;;;10.32;4.80;;;9.10;99.90;;;;;;5046904;28;20033;-79
2024/01/30 09:29:50;;;;;;;7.13;4.05;;;9.20;99.90;;;;;;5056123;28;20117;-79
2024/01/30 09:32:17;;;;;;;9.18;5.00;;;9.30;99.90;;;;;;5062332;28;20059;-79
2024/01/30 09:34:43;;;;;;;12.70;4.88;;;9.30;99.90;;;;;;5055812;28;20045;-79
2024/01/30 09:37:09;;;;;;;8.77;4.28;;;9.30;99.90;;;;;;5057297;28;20110;-78
2024/01/30 09:39:35;;;;;;;7.45;3.90;;;9.40;99.90;;;;;;5058057;28;20032;-78
2024/01/30 09:42:37;;;;;;;10.23;4.65;;;9.40;99.90;;;;;;5060204;28;20397;-78
2024/01/30 09:45:04;;;;;;;9.40;4.75;;;9.50;99.90;;;;;;5060519;28;20052;-78
2024/01/30 09:47:42;;;;;;;6.55;3.67;;;9.60;99.90;;;;;;5063057;28;20142;-80
2024/01/30 09:50:09;;;;;;;5.90;3.58;;;9.80;99.90;;;;;;5045638;28;20546;-78
2024/01/30 09:52:36;;;;;;;8.70;4.55;;;9.80;99.90;;;;;;5047442;28;20045;-78
2024/01/30 09:55:02;;;;;;;6.03;3.92;;;9.80;99.90;;;;;;5063804;28;20123;-79
2024/01/30 09:57:28;;;;;;;8.02;4.07;;;9.90;99.90;;;;;;5057200;28;20028;-78
2024/01/30 09:59:54;;;;;;;10.23;4.97;;;9.90;99.90;;;;;;5065921;28;20047;-78
2024/01/30 10:02:21;;;;;;;7.93;3.85;;;9.90;99.90;;;;;;5057156;28;20119;-78
2024/01/30 10:04:51;;;;;;;9.10;4.05;;;9.90;99.90;;;;;;5056417;28;20585;-80
2024/01/30 10:07:18;;;;;;;9.65;4.72;;;9.90;99.90;;;;;;5063736;28;20045;-79
2024/01/30 10:09:44;;;;;;;12.65;5.40;;;9.90;99.90;;;;;;5062825;28;20051;-79
2024/01/30 10:12:11;;;;;;;16.75;7.03;;;9.90;99.90;;;;;;5057495;28;20041;-80
2024/01/30 10:14:40;;;;;;;13.80;5.95;;;9.90;99.90;;;;;;5055725;28;20029;-80
2024/01/30 10:17:10;;;;;;;15.73;6.35;;;9.90;99.90;;;;;;5062887;28;20560;-80
2024/01/30 10:19:38;;;;;;;16.75;6.93;;;10.00;99.90;;;;;;5075310;28;20044;-80
2024/01/30 10:22:04;;;;;;;13.98;7.15;;;10.00;99.90;;;;;;5067350;28;20049;-80
2024/01/30 10:24:30;;;;;;;18.95;5.97;;;10.00;99.90;;;;;;5062113;28;20037;-79
2024/01/30 10:26:56;;;;;;;10.48;5.63;;;10.00;99.90;;;;;;5048553;28;20499;-80
2024/01/30 10:29:22;;;;;;;13.80;5.30;;;10.10;99.90;;;;;;5059327;28;20044;-78
2024/01/30 10:32:06;;;;;;;7.95;4.30;;;10.10;99.90;;;;;;5058541;28;20056;-80
2024/01/30 10:34:33;;;;;;;15.10;5.57;;;10.20;99.90;;;;;;5060266;28;20048;-79
2024/01/30 10:37:15;;;;;;;9.10;4.53;;;10.20;99.90;;;;;;5045998;28;20037;-80
2024/01/30 10:39:42;;;;;;;7.25;4.68;;;10.30;99.90;;;;;;5058922;28;20042;-81
2024/01/30 10:42:15;;;;;;;9.30;4.53;;;10.40;99.90;;;;;;5057009;28;20048;-81
2024/01/30 10:44:53;;;;;;;8.43;4.95;;;10.40;99.90;;;;;;5058114;28;20094;-80
2024/01/30 10:47:25;;;;;;;17.73;4.57;;;10.50;99.90;;;;;;5061156;28;20049;-80
2024/01/30 10:49:52;;;;;;;9.18;5.72;;;10.50;99.90;;;;;;5065745;28;20033;-80
2024/01/30 10:52:20;;;;;;;10.70;5.47;;;10.60;99.90;;;;;;5059672;28;20488;-79
2024/01/30 10:54:47;;;;;;;8.48;5.00;;;10.60;99.90;;;;;;5057922;28;20048;-78
2024/01/30 10:57:15;;;;;;;8.98;3.85;;;10.60;99.90;;;;;;5043522;28;20028;-77
2024/01/30 10:59:42;;;;;;;7.75;3.22;;;10.60;99.90;;;;;;5059715;28;20044;-75
2024/01/30 11:02:09;;;;;;;7.03;2.90;;;10.50;99.90;;;;;;5058983;28;20044;-80
2024/01/30 11:04:40;;;;;;;6.75;2.63;;;10.40;99.90;;;;;;5061020;28;20048;-74
2024/01/30 11:07:25;;;;;;;5.43;2.28;;;10.30;99.90;;;;;;5065686;28;20040;-79
2024/01/30 11:09:51;;;;;;;7.93;2.92;;;10.20;99.90;;;;;;5065850;28;20084;-80
2024/01/30 11:12:21;;;;;;;4.65;2.08;;;10.20;99.90;;;;;;5058401;28;20037;-80
2024/01/30 11:14:47;;;;;;;6.93;1.90;;;10.10;99.90;;;;;;5064618;28;20119;-79
2024/01/30 11:17:12;;;;;;;3.58;1.33;;;10.10;99.90;;;;;;5059387;28;20124;-79
2024/01/30 11:19:38;;;;;;;3.65;1.90;;;10.10;99.90;;;;;;5056826;28;20185;-79
2024/01/30 11:22:07;;;;;;;5.88;1.67;;;10.00;99.90;;;;;;5049525;28;20096;-79
2024/01/30 11:24:41;;;;;;;3.47;1.30;;;10.00;99.90;;;;;;5058948;28;20044;-77
2024/01/30 11:27:10;;;;;;;6.60;1.60;;;10.00;99.90;;;;;;5057992;28;20045;-79
2024/01/30 11:29:36;;;;;;;4.57;0.80;;;9.90;99.90;;;;;;5063612;28;20063;-80
2024/01/30 11:32:02;;;;;;;2.65;0.98;;;9.90;99.90;;;;;;5057272;28;20060;-76
2024/01/30 11:34:28;;;;;;;1.67;0.82;;;9.80;99.90;;;;;;5042253;28;20033;-79
2024/01/30 11:37:03;;;;;;;3.30;0.60;;;9.80;99.90;;;;;;5058627;28;20132;-79
2024/01/30 11:39:32;;;;;;;1.52;0.85;;;9.70;99.90;;;;;;5057318;28;20040;-74
2024/01/30 11:41:59;;;;;;;4.18;0.70;;;9.70;99.90;;;;;;5064387;28;20090;-78
2024/01/30 11:44:25;;;;;;;5.20;1.42;;;9.70;99.90;;;;;;5056547;28;20053;-74
2024/01/30 11:46:52;;;;;;;1.50;0.95;;;9.70;99.90;;;;;;5065896;28;20385;-78
2024/01/30 11:49:18;;;;;;;1.58;0.63;;;9.70;99.90;;;;;;5058740;28;20416;-80
2024/01/30 11:51:46;;;;;;;1.23;0.52;;;9.70;99.90;;;;;;5058084;28;20092;-78
2024/01/30 11:54:12;;;;;;;0.40;0.30;;;9.70;99.90;;;;;;5065588;28;20044;-78
2024/01/30 11:56:38;;;;;;;1.17;0.30;;;9.80;99.90;;;;;;5042169;28;20154;-78
2024/01/30 11:59:04;;;;;;;1.33;0.68;;;9.90;99.90;;;;;;5059207;28;20047;-79
2024/01/30 12:01:31;;;;;;;0.65;0.30;;;9.90;99.90;;;;;;5057666;28;20542;-79
2024/01/30 12:03:59;;;;;;;0.15;0.13;;;9.90;99.90;;;;;;5064631;28;20043;-79
2024/01/30 12:06:25;;;;;;;0.30;0.20;;;9.90;99.90;;;;;;5058228;28;20582;-71
2024/01/30 12:09:10;;;;;;;0.88;0.20;;;10.00;99.90;;;;;;5042502;28;20041;-78
2024/01/30 12:11:54;;;;;;;0.55;0.40;;;10.00;99.90;;;;;;5065196;28;20392;-79
2024/01/30 12:14:22;;;;;;;0.35;0.17;;;10.10;99.90;;;;;;5065769;28;20044;-78
2024/01/30 12:16:51;;;;;;;0.57;0.20;;;10.10;99.90;;;;;;5042029;28;20530;-79
2024/01/30 12:19:24;;;;;;;2.08;0.32;;;10.10;99.90;;;;;;5064679;28;20051;-79
2024/01/30 12:21:59;;;;;;;1.15;0.30;;;10.00;99.90;;;;;;5059350;28;20381;-74
2024/01/30 12:24:26;;;;;;;1.10;0.55;;;10.00;99.90;;;;;;5058767;28;20080;-80
2024/01/30 12:26:52;;;;;;;1.27;0.65;;;10.00;99.90;;;;;;5057322;28;20048;-78
2024/01/30 12:29:21;;;;;;;2.15;0.45;;;10.10;99.90;;;;;;5055921;28;20041;-79
2024/01/30 12:31:47;;;;;;;2.22;0.70;;;10.10;99.90;;;;;;5063654;28;20428;-77
2024/01/30 12:34:17;;;;;;;2.83;0.60;;;10.10;99.90;;;;;;5064631;28;20051;-78
2024/01/30 12:36:43;;;;;;;0.60;0.40;;;10.20;99.90;;;;;;5058415;28;20037;-78
2024/01/30 12:39:14;;;;;;;1.45;0.25;;;10.50;99.90;;;;;;5064563;28;20047;-77
2024/01/30 12:41:40;;;;;;;0.43;0.40;;;10.60;99.90;;;;;;5056179;28;20408;-76
2024/01/30 12:44:06;;;;;;;0.35;0.20;;;10.90;99.90;;;;;;5057902;28;20090;-78
2024/01/30 12:46:34;;;;;;;0.70;0.13;;;11.20;99.90;;;;;;5064466;28;20048;-72
2024/01/30 12:49:00;;;;;;;0.20;0.20;;;11.30;99.90;;;;;;5057137;28;20037;-77
2024/01/30 12:51:26;;;;;;;0.28;0.28;;;11.20;99.90;;;;;;5047722;28;20044;-74